<?xml version="1.0" encoding="UTF-8" standalone="no" ?>
<gpx xmlns="http://www.topografix.com/GPX/1/1" xmlns:xsi="http://www.w3.org/2001/XMLSchema-instance" xsi:schemaLocation="http://www.topografix.com/GPX/1/1 http://www.topografix.com/GPX/1/1/gpx.xsd" version="1.1" creator="VisuGPX - https://www.visugpx.com">
  <metadata>
    <name>L7 L'Ardillat</name>
  </metadata>
  <trk>
    <name><![CDATA[L7 L'Ardillat]]></name>
    <trkseg>
      <trkpt lat="45.66256" lon="4.56963">
        <ele>712.46659694058</ele>
        <time>2022-08-10T03:29:42.000Z</time>
      </trkpt>
      <trkpt lat="45.66268" lon="4.5692">
        <ele>713.83527772512</ele>
        <time>2022-08-10T03:29:42.006Z</time>
      </trkpt>
      <trkpt lat="45.66268" lon="4.56964">
        <ele>715.40006598236</ele>
        <time>2022-08-10T03:29:42.019Z</time>
      </trkpt>
      <trkpt lat="45.66292" lon="4.57092">
        <ele>717.82511855393</ele>
        <time>2022-08-10T03:29:42.050Z</time>
      </trkpt>
      <trkpt lat="45.66301" lon="4.57117">
        <ele>719.54028398161</ele>
        <time>2022-08-10T03:29:42.085Z</time>
      </trkpt>
      <trkpt lat="45.6631" lon="4.57127">
        <ele>721.19246206391</ele>
        <time>2022-08-10T03:29:42.122Z</time>
      </trkpt>
      <trkpt lat="45.66318" lon="4.57136">
        <ele>722.68964856574</ele>
        <time>2022-08-10T03:29:42.162Z</time>
      </trkpt>
      <trkpt lat="45.66343" lon="4.5715">
        <ele>724.37393301107</ele>
        <time>2022-08-10T03:29:42.207Z</time>
      </trkpt>
      <trkpt lat="45.66368" lon="4.57152">
        <ele>725.68348647607</ele>
        <time>2022-08-10T03:29:42.257Z</time>
      </trkpt>
      <trkpt lat="45.66394" lon="4.57138">
        <ele>726.67687046104</ele>
        <time>2022-08-10T03:29:42.312Z</time>
      </trkpt>
      <trkpt lat="45.6642" lon="4.57112">
        <ele>727.55783520981</ele>
        <time>2022-08-10T03:29:42.374Z</time>
      </trkpt>
      <trkpt lat="45.66463" lon="4.57068">
        <ele>728.52690874504</ele>
        <time>2022-08-10T03:29:42.446Z</time>
      </trkpt>
      <trkpt lat="45.66466" lon="4.57094">
        <ele>728.79060384947</ele>
        <time>2022-08-10T03:29:42.522Z</time>
      </trkpt>
      <trkpt lat="45.66471" lon="4.57182">
        <ele>728.67970924107</ele>
        <time>2022-08-10T03:29:42.610Z</time>
      </trkpt>
      <trkpt lat="45.66471" lon="4.57196">
        <ele>728.37843323008</ele>
        <time>2022-08-10T03:29:42.700Z</time>
      </trkpt>
      <trkpt lat="45.66511" lon="4.57198">
        <ele>728.28446521452</ele>
        <time>2022-08-10T03:29:42.798Z</time>
      </trkpt>
      <trkpt lat="45.66516" lon="4.57225">
        <ele>727.79169778111</ele>
        <time>2022-08-10T03:29:42.900Z</time>
      </trkpt>
      <trkpt lat="45.66532" lon="4.57254">
        <ele>727.11225332047</ele>
        <time>2022-08-10T03:29:43.008Z</time>
      </trkpt>
      <trkpt lat="45.66568" lon="4.57304">
        <ele>725.33849819165</ele>
        <time>2022-08-10T03:29:43.126Z</time>
      </trkpt>
      <trkpt lat="45.66583" lon="4.57315">
        <ele>723.57657769797</ele>
        <time>2022-08-10T03:29:43.247Z</time>
      </trkpt>
      <trkpt lat="45.66594" lon="4.5732">
        <ele>721.85180602185</ele>
        <time>2022-08-10T03:29:43.370Z</time>
      </trkpt>
      <trkpt lat="45.66606" lon="4.57317">
        <ele>720.24210214217</ele>
        <time>2022-08-10T03:29:43.496Z</time>
      </trkpt>
      <trkpt lat="45.66618" lon="4.57311">
        <ele>718.72337842159</ele>
        <time>2022-08-10T03:29:43.624Z</time>
      </trkpt>
      <trkpt lat="45.66625" lon="4.57317">
        <ele>717.11914996086</ele>
        <time>2022-08-10T03:29:43.754Z</time>
      </trkpt>
      <trkpt lat="45.66659" lon="4.57339">
        <ele>715.21650553725</ele>
        <time>2022-08-10T03:29:43.891Z</time>
      </trkpt>
      <trkpt lat="45.6669" lon="4.57352">
        <ele>713.45548932193</ele>
        <time>2022-08-10T03:29:44.035Z</time>
      </trkpt>
      <trkpt lat="45.66696" lon="4.57348">
        <ele>711.99274895373</ele>
        <time>2022-08-10T03:29:44.180Z</time>
      </trkpt>
      <trkpt lat="45.66736" lon="4.57366">
        <ele>710.20070953025</ele>
        <time>2022-08-10T03:29:44.334Z</time>
      </trkpt>
      <trkpt lat="45.6676" lon="4.57383">
        <ele>708.26316130861</ele>
        <time>2022-08-10T03:29:44.493Z</time>
      </trkpt>
      <trkpt lat="45.66778" lon="4.57389">
        <ele>706.66898487542</ele>
        <time>2022-08-10T03:29:44.656Z</time>
      </trkpt>
      <trkpt lat="45.66782" lon="4.5739">
        <ele>705.110092033</ele>
        <time>2022-08-10T03:29:44.819Z</time>
      </trkpt>
      <trkpt lat="45.66796" lon="4.574">
        <ele>703.51452522617</ele>
        <time>2022-08-10T03:29:44.986Z</time>
      </trkpt>
      <trkpt lat="45.66814" lon="4.57405">
        <ele>702.00001226296</ele>
        <time>2022-08-10T03:29:45.156Z</time>
      </trkpt>
      <trkpt lat="45.66866" lon="4.57391">
        <ele>700.73688366615</ele>
        <time>2022-08-10T03:29:45.337Z</time>
      </trkpt>
      <trkpt lat="45.66886" lon="4.57397">
        <ele>699.09821736557</ele>
        <time>2022-08-10T03:29:45.522Z</time>
      </trkpt>
      <trkpt lat="45.66893" lon="4.57403">
        <ele>697.34815499758</ele>
        <time>2022-08-10T03:29:45.709Z</time>
      </trkpt>
      <trkpt lat="45.669" lon="4.57412">
        <ele>695.41155832816</ele>
        <time>2022-08-10T03:29:45.897Z</time>
      </trkpt>
      <trkpt lat="45.66902" lon="4.57422">
        <ele>693.29665858764</ele>
        <time>2022-08-10T03:29:46.087Z</time>
      </trkpt>
      <trkpt lat="45.66899" lon="4.57429">
        <ele>691.04889548428</ele>
        <time>2022-08-10T03:29:46.278Z</time>
      </trkpt>
      <trkpt lat="45.66871" lon="4.57445">
        <ele>688.40884969702</ele>
        <time>2022-08-10T03:29:46.475Z</time>
      </trkpt>
      <trkpt lat="45.66864" lon="4.57452">
        <ele>685.75565122098</ele>
        <time>2022-08-10T03:29:46.674Z</time>
      </trkpt>
      <trkpt lat="45.66863" lon="4.5746">
        <ele>682.95925291194</ele>
        <time>2022-08-10T03:29:46.874Z</time>
      </trkpt>
      <trkpt lat="45.66865" lon="4.57466">
        <ele>680.1065346079</ele>
        <time>2022-08-10T03:29:47.075Z</time>
      </trkpt>
      <trkpt lat="45.66859" lon="4.57466">
        <ele>677.30415398092</ele>
        <time>2022-08-10T03:29:47.277Z</time>
      </trkpt>
      <trkpt lat="45.66844" lon="4.57466">
        <ele>674.39677277809</ele>
        <time>2022-08-10T03:29:47.482Z</time>
      </trkpt>
      <trkpt lat="45.66834" lon="4.57473">
        <ele>671.254854162</ele>
        <time>2022-08-10T03:29:47.689Z</time>
      </trkpt>
      <trkpt lat="45.66797" lon="4.57523">
        <ele>666.8672353103</ele>
        <time>2022-08-10T03:29:47.906Z</time>
      </trkpt>
      <trkpt lat="45.6678" lon="4.57546">
        <ele>663.25256513989</ele>
        <time>2022-08-10T03:29:48.128Z</time>
      </trkpt>
      <trkpt lat="45.66754" lon="4.57561">
        <ele>659.7621515672</ele>
        <time>2022-08-10T03:29:48.356Z</time>
      </trkpt>
      <trkpt lat="45.66692" lon="4.57585">
        <ele>656.49843186112</ele>
        <time>2022-08-10T03:29:48.597Z</time>
      </trkpt>
      <trkpt lat="45.66682" lon="4.57597">
        <ele>653.38407204399</ele>
        <time>2022-08-10T03:29:48.840Z</time>
      </trkpt>
      <trkpt lat="45.66666" lon="4.57673">
        <ele>649.94622766238</ele>
        <time>2022-08-10T03:29:49.094Z</time>
      </trkpt>
      <trkpt lat="45.66651" lon="4.57712">
        <ele>646.86921166117</ele>
        <time>2022-08-10T03:29:49.355Z</time>
      </trkpt>
      <trkpt lat="45.66628" lon="4.57743">
        <ele>644.31477094383</ele>
        <time>2022-08-10T03:29:49.622Z</time>
      </trkpt>
      <trkpt lat="45.66622" lon="4.57763">
        <ele>641.77583263437</ele>
        <time>2022-08-10T03:29:49.892Z</time>
      </trkpt>
      <trkpt lat="45.66612" lon="4.57864">
        <ele>639.31433056186</ele>
        <time>2022-08-10T03:29:50.176Z</time>
      </trkpt>
      <trkpt lat="45.66624" lon="4.57873">
        <ele>636.71111397023</ele>
        <time>2022-08-10T03:29:50.463Z</time>
      </trkpt>
      <trkpt lat="45.66632" lon="4.5788">
        <ele>634.23139781529</ele>
        <time>2022-08-10T03:29:50.752Z</time>
      </trkpt>
      <trkpt lat="45.66638" lon="4.57887">
        <ele>631.7967751233</ele>
        <time>2022-08-10T03:29:51.042Z</time>
      </trkpt>
      <trkpt lat="45.6664" lon="4.57892">
        <ele>629.42044726041</ele>
        <time>2022-08-10T03:29:51.333Z</time>
      </trkpt>
      <trkpt lat="45.66638" lon="4.57909">
        <ele>627.01731260443</ele>
        <time>2022-08-10T03:29:51.627Z</time>
      </trkpt>
      <trkpt lat="45.66632" lon="4.57921">
        <ele>624.60423062275</ele>
        <time>2022-08-10T03:29:51.923Z</time>
      </trkpt>
      <trkpt lat="45.66585" lon="4.5797">
        <ele>622.12108517197</ele>
        <time>2022-08-10T03:29:52.230Z</time>
      </trkpt>
      <trkpt lat="45.66578" lon="4.57981">
        <ele>619.57195989251</ele>
        <time>2022-08-10T03:29:52.539Z</time>
      </trkpt>
      <trkpt lat="45.66573" lon="4.57995">
        <ele>616.83254064147</ele>
        <time>2022-08-10T03:29:52.851Z</time>
      </trkpt>
      <trkpt lat="45.66534" lon="4.5811">
        <ele>613.13831280596</ele>
        <time>2022-08-10T03:29:53.181Z</time>
      </trkpt>
      <trkpt lat="45.66533" lon="4.58116">
        <ele>610.07668967856</ele>
        <time>2022-08-10T03:29:53.511Z</time>
      </trkpt>
      <trkpt lat="45.66532" lon="4.58122">
        <ele>606.8973302193</ele>
        <time>2022-08-10T03:29:53.842Z</time>
      </trkpt>
      <trkpt lat="45.66534" lon="4.58126">
        <ele>603.58375448756</ele>
        <time>2022-08-10T03:29:54.174Z</time>
      </trkpt>
      <trkpt lat="45.66548" lon="4.58133">
        <ele>599.99943115383</ele>
        <time>2022-08-10T03:29:54.509Z</time>
      </trkpt>
      <trkpt lat="45.66555" lon="4.58157">
        <ele>596.21819286135</ele>
        <time>2022-08-10T03:29:54.848Z</time>
      </trkpt>
      <trkpt lat="45.66558" lon="4.58173">
        <ele>592.41274043996</ele>
        <time>2022-08-10T03:29:55.189Z</time>
      </trkpt>
      <trkpt lat="45.66558" lon="4.58187">
        <ele>588.48966291199</ele>
        <time>2022-08-10T03:29:55.532Z</time>
      </trkpt>
      <trkpt lat="45.66555" lon="4.58198">
        <ele>584.52454422397</ele>
        <time>2022-08-10T03:29:55.877Z</time>
      </trkpt>
      <trkpt lat="45.66548" lon="4.58207">
        <ele>580.5206180119</ele>
        <time>2022-08-10T03:29:56.223Z</time>
      </trkpt>
      <trkpt lat="45.66538" lon="4.5821">
        <ele>576.54869913911</ele>
        <time>2022-08-10T03:29:56.571Z</time>
      </trkpt>
      <trkpt lat="45.66514" lon="4.58195">
        <ele>572.82543659397</ele>
        <time>2022-08-10T03:29:56.925Z</time>
      </trkpt>
      <trkpt lat="45.66502" lon="4.58197">
        <ele>568.83690395417</ele>
        <time>2022-08-10T03:29:57.281Z</time>
      </trkpt>
      <trkpt lat="45.66492" lon="4.58203">
        <ele>564.88063390555</ele>
        <time>2022-08-10T03:29:57.639Z</time>
      </trkpt>
      <trkpt lat="45.6645" lon="4.58267">
        <ele>560.28502773016</ele>
        <time>2022-08-10T03:29:58.010Z</time>
      </trkpt>
      <trkpt lat="45.66419" lon="4.58284">
        <ele>556.6727191397</ele>
        <time>2022-08-10T03:29:58.387Z</time>
      </trkpt>
      <trkpt lat="45.66378" lon="4.58499">
        <ele>550.90309213932</ele>
        <time>2022-08-10T03:29:58.796Z</time>
      </trkpt>
      <trkpt lat="45.66357" lon="4.58668">
        <ele>545.65625500721</ele>
        <time>2022-08-10T03:29:59.229Z</time>
      </trkpt>
      <trkpt lat="45.66359" lon="4.58731">
        <ele>541.09732240364</ele>
        <time>2022-08-10T03:29:59.670Z</time>
      </trkpt>
      <trkpt lat="45.66353" lon="4.58743">
        <ele>537.91470494412</ele>
        <time>2022-08-10T03:30:00.114Z</time>
      </trkpt>
      <trkpt lat="45.66342" lon="4.58743">
        <ele>535.41444305573</ele>
        <time>2022-08-10T03:30:00.560Z</time>
      </trkpt>
      <trkpt lat="45.66327" lon="4.58739">
        <ele>533.4574985408</ele>
        <time>2022-08-10T03:30:01.009Z</time>
      </trkpt>
      <trkpt lat="45.66325" lon="4.58739">
        <ele>531.94047451387</ele>
        <time>2022-08-10T03:30:01.458Z</time>
      </trkpt>
      <trkpt lat="45.66303" lon="4.58697">
        <ele>531.48360464691</ele>
        <time>2022-08-10T03:30:01.915Z</time>
      </trkpt>
      <trkpt lat="45.66285" lon="4.58673">
        <ele>531.36966723395</ele>
        <time>2022-08-10T03:30:02.376Z</time>
      </trkpt>
      <trkpt lat="45.6625" lon="4.58639">
        <ele>531.77613466536</ele>
        <time>2022-08-10T03:30:02.846Z</time>
      </trkpt>
      <trkpt lat="45.66223" lon="4.58605">
        <ele>532.89398312697</ele>
        <time>2022-08-10T03:30:03.323Z</time>
      </trkpt>
      <trkpt lat="45.66162" lon="4.58602">
        <ele>533.75778351279</ele>
        <time>2022-08-10T03:30:03.812Z</time>
      </trkpt>
      <trkpt lat="45.66125" lon="4.58569">
        <ele>535.68889897255</ele>
        <time>2022-08-10T03:30:04.310Z</time>
      </trkpt>
      <trkpt lat="45.66107" lon="4.58617">
        <ele>537.83722043764</ele>
        <time>2022-08-10T03:30:04.816Z</time>
      </trkpt>
      <trkpt lat="45.66108" lon="4.58642">
        <ele>540.21988976235</ele>
        <time>2022-08-10T03:30:05.325Z</time>
      </trkpt>
      <trkpt lat="45.66096" lon="4.58671">
        <ele>543.18098647705</ele>
        <time>2022-08-10T03:30:05.839Z</time>
      </trkpt>
      <trkpt lat="45.6606" lon="4.58713">
        <ele>546.7283043482</ele>
        <time>2022-08-10T03:30:06.362Z</time>
      </trkpt>
      <trkpt lat="45.66122" lon="4.58732">
        <ele>550.14698332246</ele>
        <time>2022-08-10T03:30:06.898Z</time>
      </trkpt>
      <trkpt lat="45.66178" lon="4.58821">
        <ele>554.630370431</ele>
        <time>2022-08-10T03:30:07.451Z</time>
      </trkpt>
      <trkpt lat="45.66121" lon="4.58839">
        <ele>559.09844169625</ele>
        <time>2022-08-10T03:30:08.015Z</time>
      </trkpt>
      <trkpt lat="45.66121" lon="4.58839">
        <ele>567.39262019035</ele>
        <time>2022-08-10T03:30:08.579Z</time>
      </trkpt>
      <trkpt lat="45.66084" lon="4.58873">
        <ele>571.72949046675</ele>
        <time>2022-08-10T03:30:09.152Z</time>
      </trkpt>
      <trkpt lat="45.6608" lon="4.58887">
        <ele>576.13190513241</ele>
        <time>2022-08-10T03:30:09.727Z</time>
      </trkpt>
      <trkpt lat="45.66083" lon="4.58897">
        <ele>580.45320969793</ele>
        <time>2022-08-10T03:30:10.304Z</time>
      </trkpt>
      <trkpt lat="45.661" lon="4.58913">
        <ele>584.70980798977</ele>
        <time>2022-08-10T03:30:10.885Z</time>
      </trkpt>
      <trkpt lat="45.66104" lon="4.58919">
        <ele>588.75818081005</ele>
        <time>2022-08-10T03:30:11.467Z</time>
      </trkpt>
      <trkpt lat="45.66109" lon="4.58932">
        <ele>592.67481648359</ele>
        <time>2022-08-10T03:30:12.051Z</time>
      </trkpt>
      <trkpt lat="45.66103" lon="4.58951">
        <ele>596.444504148</ele>
        <time>2022-08-10T03:30:12.638Z</time>
      </trkpt>
      <trkpt lat="45.66103" lon="4.58952">
        <ele>599.85500850303</ele>
        <time>2022-08-10T03:30:13.225Z</time>
      </trkpt>
      <trkpt lat="45.6609" lon="4.58998">
        <ele>603.35916015691</ele>
        <time>2022-08-10T03:30:13.819Z</time>
      </trkpt>
      <trkpt lat="45.66042" lon="4.59069">
        <ele>606.40463799286</ele>
        <time>2022-08-10T03:30:14.427Z</time>
      </trkpt>
      <trkpt lat="45.65995" lon="4.59169">
        <ele>609.64450108856</ele>
        <time>2022-08-10T03:30:15.052Z</time>
      </trkpt>
      <trkpt lat="45.65987" lon="4.5919">
        <ele>611.88869705255</ele>
        <time>2022-08-10T03:30:15.680Z</time>
      </trkpt>
      <trkpt lat="45.66051" lon="4.59231">
        <ele>613.80434363496</ele>
        <time>2022-08-10T03:30:16.322Z</time>
      </trkpt>
      <trkpt lat="45.66149" lon="4.59275">
        <ele>615.19514590838</ele>
        <time>2022-08-10T03:30:16.985Z</time>
      </trkpt>
      <trkpt lat="45.66194" lon="4.59313">
        <ele>615.83720018192</ele>
        <time>2022-08-10T03:30:17.658Z</time>
      </trkpt>
      <trkpt lat="45.66207" lon="4.59344">
        <ele>616.22782989062</ele>
        <time>2022-08-10T03:30:18.336Z</time>
      </trkpt>
      <trkpt lat="45.66214" lon="4.59359">
        <ele>615.93439619633</ele>
        <time>2022-08-10T03:30:19.017Z</time>
      </trkpt>
      <trkpt lat="45.66245" lon="4.59372">
        <ele>614.8157501407</ele>
        <time>2022-08-10T03:30:19.704Z</time>
      </trkpt>
      <trkpt lat="45.66283" lon="4.5937">
        <ele>613.02008276625</ele>
        <time>2022-08-10T03:30:20.399Z</time>
      </trkpt>
      <trkpt lat="45.66343" lon="4.59514">
        <ele>610.98256796343</ele>
        <time>2022-08-10T03:30:21.117Z</time>
      </trkpt>
      <trkpt lat="45.664" lon="4.59542">
        <ele>607.91219880703</ele>
        <time>2022-08-10T03:30:21.848Z</time>
      </trkpt>
      <trkpt lat="45.66511" lon="4.59666">
        <ele>604.90957627202</ele>
        <time>2022-08-10T03:30:22.607Z</time>
      </trkpt>
      <trkpt lat="45.66535" lon="4.59741">
        <ele>601.93652086718</ele>
        <time>2022-08-10T03:30:23.377Z</time>
      </trkpt>
      <trkpt lat="45.66541" lon="4.5976">
        <ele>598.40817668881</ele>
        <time>2022-08-10T03:30:24.150Z</time>
      </trkpt>
      <trkpt lat="45.66541" lon="4.59932">
        <ele>593.83261819567</ele>
        <time>2022-08-10T03:30:24.947Z</time>
      </trkpt>
      <trkpt lat="45.6655" lon="4.59996">
        <ele>589.23712030019</ele>
        <time>2022-08-10T03:30:25.753Z</time>
      </trkpt>
      <trkpt lat="45.66562" lon="4.60036">
        <ele>584.81026229865</ele>
        <time>2022-08-10T03:30:26.566Z</time>
      </trkpt>
      <trkpt lat="45.66573" lon="4.60076">
        <ele>580.12152036941</ele>
        <time>2022-08-10T03:30:27.385Z</time>
      </trkpt>
      <trkpt lat="45.6658" lon="4.60072">
        <ele>575.62980293359</ele>
        <time>2022-08-10T03:30:28.205Z</time>
      </trkpt>
      <trkpt lat="45.66606" lon="4.60058">
        <ele>570.91109141291</ele>
        <time>2022-08-10T03:30:29.031Z</time>
      </trkpt>
      <trkpt lat="45.66619" lon="4.60046">
        <ele>566.20127982331</ele>
        <time>2022-08-10T03:30:29.860Z</time>
      </trkpt>
      <trkpt lat="45.6663" lon="4.60041">
        <ele>561.49380520751</ele>
        <time>2022-08-10T03:30:30.691Z</time>
      </trkpt>
      <trkpt lat="45.66639" lon="4.60042">
        <ele>556.77287027978</ele>
        <time>2022-08-10T03:30:31.524Z</time>
      </trkpt>
      <trkpt lat="45.66655" lon="4.60047">
        <ele>552.04487521496</ele>
        <time>2022-08-10T03:30:32.360Z</time>
      </trkpt>
      <trkpt lat="45.66674" lon="4.60054">
        <ele>547.36388203502</ele>
        <time>2022-08-10T03:30:33.200Z</time>
      </trkpt>
      <trkpt lat="45.66686" lon="4.6006">
        <ele>542.81548601657</ele>
        <time>2022-08-10T03:30:34.043Z</time>
      </trkpt>
      <trkpt lat="45.66695" lon="4.60065">
        <ele>538.36869962084</ele>
        <time>2022-08-10T03:30:34.888Z</time>
      </trkpt>
      <trkpt lat="45.6673" lon="4.60085">
        <ele>533.68787854997</ele>
        <time>2022-08-10T03:30:35.740Z</time>
      </trkpt>
      <trkpt lat="45.66752" lon="4.60086">
        <ele>529.28540951192</ele>
        <time>2022-08-10T03:30:36.597Z</time>
      </trkpt>
      <trkpt lat="45.66777" lon="4.60079">
        <ele>525.01737334885</ele>
        <time>2022-08-10T03:30:37.459Z</time>
      </trkpt>
      <trkpt lat="45.66788" lon="4.60075">
        <ele>521.0881277553</ele>
        <time>2022-08-10T03:30:38.323Z</time>
      </trkpt>
      <trkpt lat="45.66799" lon="4.60065">
        <ele>517.30396213574</ele>
        <time>2022-08-10T03:30:39.190Z</time>
      </trkpt>
      <trkpt lat="45.66805" lon="4.60055">
        <ele>513.70882549673</ele>
        <time>2022-08-10T03:30:40.058Z</time>
      </trkpt>
      <trkpt lat="45.66813" lon="4.60021">
        <ele>510.11447819734</ele>
        <time>2022-08-10T03:30:40.931Z</time>
      </trkpt>
      <trkpt lat="45.66834" lon="4.60015">
        <ele>506.72868074064</ele>
        <time>2022-08-10T03:30:41.809Z</time>
      </trkpt>
      <trkpt lat="45.66842" lon="4.60008">
        <ele>503.67886416445</ele>
        <time>2022-08-10T03:30:42.689Z</time>
      </trkpt>
      <trkpt lat="45.66863" lon="4.59978">
        <ele>500.61780345652</ele>
        <time>2022-08-10T03:30:43.575Z</time>
      </trkpt>
      <trkpt lat="45.66871" lon="4.59965">
        <ele>497.94884878902</ele>
        <time>2022-08-10T03:30:44.463Z</time>
      </trkpt>
      <trkpt lat="45.66902" lon="4.59944">
        <ele>495.44239764534</ele>
        <time>2022-08-10T03:30:45.358Z</time>
      </trkpt>
      <trkpt lat="45.66917" lon="4.59934">
        <ele>493.22521286277</ele>
        <time>2022-08-10T03:30:46.256Z</time>
      </trkpt>
      <trkpt lat="45.66948" lon="4.59911">
        <ele>491.0874750389</ele>
        <time>2022-08-10T03:30:47.161Z</time>
      </trkpt>
      <trkpt lat="45.66951" lon="4.59903">
        <ele>489.31656511394</ele>
        <time>2022-08-10T03:30:48.067Z</time>
      </trkpt>
      <trkpt lat="45.66955" lon="4.599">
        <ele>487.73239781637</ele>
        <time>2022-08-10T03:30:48.974Z</time>
      </trkpt>
      <trkpt lat="45.66963" lon="4.59901">
        <ele>486.31863759642</ele>
        <time>2022-08-10T03:30:49.883Z</time>
      </trkpt>
      <trkpt lat="45.66963" lon="4.59897">
        <ele>485.12847893163</ele>
        <time>2022-08-10T03:30:50.792Z</time>
      </trkpt>
      <trkpt lat="45.66955" lon="4.59875">
        <ele>483.96372604773</ele>
        <time>2022-08-10T03:30:51.705Z</time>
      </trkpt>
      <trkpt lat="45.66945" lon="4.59865">
        <ele>482.99525805774</ele>
        <time>2022-08-10T03:30:52.620Z</time>
      </trkpt>
      <trkpt lat="45.66935" lon="4.59861">
        <ele>482.18065582376</ele>
        <time>2022-08-10T03:30:53.537Z</time>
      </trkpt>
      <trkpt lat="45.66899" lon="4.59874">
        <ele>481.53393302996</ele>
        <time>2022-08-10T03:30:54.462Z</time>
      </trkpt>
      <trkpt lat="45.66856" lon="4.59867">
        <ele>481.07042138651</ele>
        <time>2022-08-10T03:30:55.396Z</time>
      </trkpt>
      <trkpt lat="45.66847" lon="4.59863">
        <ele>480.57906512351</ele>
        <time>2022-08-10T03:30:56.331Z</time>
      </trkpt>
      <trkpt lat="45.66843" lon="4.59859">
        <ele>480.09105356694</ele>
        <time>2022-08-10T03:30:57.267Z</time>
      </trkpt>
      <trkpt lat="45.66841" lon="4.59852">
        <ele>479.60775083522</ele>
        <time>2022-08-10T03:30:58.204Z</time>
      </trkpt>
      <trkpt lat="45.66842" lon="4.59845">
        <ele>479.10654376118</ele>
        <time>2022-08-10T03:30:59.142Z</time>
      </trkpt>
      <trkpt lat="45.66845" lon="4.59836">
        <ele>478.57012305169</ele>
        <time>2022-08-10T03:31:00.082Z</time>
      </trkpt>
      <trkpt lat="45.6686" lon="4.59821">
        <ele>477.96704562236</ele>
        <time>2022-08-10T03:31:01.026Z</time>
      </trkpt>
      <trkpt lat="45.66898" lon="4.59763">
        <ele>477.29263581786</ele>
        <time>2022-08-10T03:31:01.981Z</time>
      </trkpt>
      <trkpt lat="45.66911" lon="4.59747">
        <ele>476.61106402227</ele>
        <time>2022-08-10T03:31:02.939Z</time>
      </trkpt>
      <trkpt lat="45.66923" lon="4.59737">
        <ele>475.90744787771</ele>
        <time>2022-08-10T03:31:03.900Z</time>
      </trkpt>
      <trkpt lat="45.66962" lon="4.59713">
        <ele>474.84267898452</ele>
        <time>2022-08-10T03:31:04.869Z</time>
      </trkpt>
      <trkpt lat="45.66981" lon="4.59698">
        <ele>474.10982012763</ele>
        <time>2022-08-10T03:31:05.843Z</time>
      </trkpt>
      <trkpt lat="45.66988" lon="4.59687">
        <ele>473.51042912784</ele>
        <time>2022-08-10T03:31:06.819Z</time>
      </trkpt>
      <trkpt lat="45.66993" lon="4.59672">
        <ele>473.01812679504</ele>
        <time>2022-08-10T03:31:07.797Z</time>
      </trkpt>
      <trkpt lat="45.67" lon="4.59662">
        <ele>472.50815492172</ele>
        <time>2022-08-10T03:31:08.777Z</time>
      </trkpt>
      <trkpt lat="45.67013" lon="4.59665">
        <ele>471.99870064391</ele>
        <time>2022-08-10T03:31:09.760Z</time>
      </trkpt>
      <trkpt lat="45.67046" lon="4.59703">
        <ele>471.3295770125</ele>
        <time>2022-08-10T03:31:10.751Z</time>
      </trkpt>
      <trkpt lat="45.67058" lon="4.5972">
        <ele>470.66719378385</ele>
        <time>2022-08-10T03:31:11.746Z</time>
      </trkpt>
      <trkpt lat="45.67073" lon="4.59771">
        <ele>469.85794908463</ele>
        <time>2022-08-10T03:31:12.748Z</time>
      </trkpt>
      <trkpt lat="45.67078" lon="4.59803">
        <ele>469.23683664073</ele>
        <time>2022-08-10T03:31:13.755Z</time>
      </trkpt>
      <trkpt lat="45.67085" lon="4.59833">
        <ele>468.62109495522</ele>
        <time>2022-08-10T03:31:14.766Z</time>
      </trkpt>
      <trkpt lat="45.67113" lon="4.59875">
        <ele>468.03679170829</ele>
        <time>2022-08-10T03:31:15.786Z</time>
      </trkpt>
      <trkpt lat="45.67122" lon="4.59911">
        <ele>467.48867496085</ele>
        <time>2022-08-10T03:31:16.811Z</time>
      </trkpt>
      <trkpt lat="45.67128" lon="4.59941">
        <ele>466.9052119434</ele>
        <time>2022-08-10T03:31:17.840Z</time>
      </trkpt>
      <trkpt lat="45.67131" lon="4.59956">
        <ele>466.29171624139</ele>
        <time>2022-08-10T03:31:18.871Z</time>
      </trkpt>
      <trkpt lat="45.6714" lon="4.60013">
        <ele>465.59723433594</ele>
        <time>2022-08-10T03:31:19.911Z</time>
      </trkpt>
      <trkpt lat="45.67131" lon="4.59956">
        <ele>464.98876520393</ele>
        <time>2022-08-10T03:31:20.959Z</time>
      </trkpt>
      <trkpt lat="45.6714" lon="4.60013">
        <ele>464.22975930524</ele>
        <time>2022-08-10T03:31:22.015Z</time>
      </trkpt>
      <trkpt lat="45.67144" lon="4.60021">
        <ele>463.52681526954</ele>
        <time>2022-08-10T03:31:23.072Z</time>
      </trkpt>
      <trkpt lat="45.67146" lon="4.60024">
        <ele>462.77389732593</ele>
        <time>2022-08-10T03:31:24.130Z</time>
      </trkpt>
      <trkpt lat="45.67152" lon="4.60021">
        <ele>462.03873040215</ele>
        <time>2022-08-10T03:31:25.189Z</time>
      </trkpt>
      <trkpt lat="45.6717" lon="4.60092">
        <ele>461.2444155111</ele>
        <time>2022-08-10T03:31:26.259Z</time>
      </trkpt>
      <trkpt lat="45.67179" lon="4.60143">
        <ele>460.10941356416</ele>
        <time>2022-08-10T03:31:27.336Z</time>
      </trkpt>
      <trkpt lat="45.6718" lon="4.60186">
        <ele>458.97838586535</ele>
        <time>2022-08-10T03:31:28.419Z</time>
      </trkpt>
      <trkpt lat="45.67179" lon="4.60223">
        <ele>457.72405096299</ele>
        <time>2022-08-10T03:31:29.507Z</time>
      </trkpt>
      <trkpt lat="45.67175" lon="4.60252">
        <ele>456.47900285043</ele>
        <time>2022-08-10T03:31:30.599Z</time>
      </trkpt>
      <trkpt lat="45.67138" lon="4.60476">
        <ele>454.82472330521</ele>
        <time>2022-08-10T03:31:31.724Z</time>
      </trkpt>
      <trkpt lat="45.67134" lon="4.60513">
        <ele>453.64395900043</ele>
        <time>2022-08-10T03:31:32.854Z</time>
      </trkpt>
      <trkpt lat="45.6713" lon="4.6055">
        <ele>452.38890643467</ele>
        <time>2022-08-10T03:31:33.989Z</time>
      </trkpt>
      <trkpt lat="45.6713" lon="4.60578">
        <ele>451.11585118816</ele>
        <time>2022-08-10T03:31:35.128Z</time>
      </trkpt>
      <trkpt lat="45.67134" lon="4.60599">
        <ele>449.9054920922</ele>
        <time>2022-08-10T03:31:36.270Z</time>
      </trkpt>
      <trkpt lat="45.67143" lon="4.60634">
        <ele>448.73254911961</ele>
        <time>2022-08-10T03:31:37.417Z</time>
      </trkpt>
      <trkpt lat="45.67152" lon="4.60656">
        <ele>447.56397171677</ele>
        <time>2022-08-10T03:31:38.568Z</time>
      </trkpt>
      <trkpt lat="45.67152" lon="4.60656">
        <ele>446.38030720033</ele>
        <time>2022-08-10T03:31:39.719Z</time>
      </trkpt>
      <trkpt lat="45.67156" lon="4.60667">
        <ele>445.19075922622</ele>
        <time>2022-08-10T03:31:40.872Z</time>
      </trkpt>
      <trkpt lat="45.67157" lon="4.60672">
        <ele>443.9812986859</ele>
        <time>2022-08-10T03:31:42.025Z</time>
      </trkpt>
      <trkpt lat="45.67165" lon="4.60691">
        <ele>442.69640031502</ele>
        <time>2022-08-10T03:31:43.181Z</time>
      </trkpt>
      <trkpt lat="45.67187" lon="4.60738">
        <ele>441.40826066444</ele>
        <time>2022-08-10T03:31:44.345Z</time>
      </trkpt>
      <trkpt lat="45.67203" lon="4.60766">
        <ele>440.21318566649</ele>
        <time>2022-08-10T03:31:45.514Z</time>
      </trkpt>
      <trkpt lat="45.67218" lon="4.60781">
        <ele>439.03536986378</ele>
        <time>2022-08-10T03:31:46.687Z</time>
      </trkpt>
      <trkpt lat="45.67248" lon="4.608">
        <ele>437.72389357642</ele>
        <time>2022-08-10T03:31:47.867Z</time>
      </trkpt>
      <trkpt lat="45.67279" lon="4.60817">
        <ele>436.27228326195</ele>
        <time>2022-08-10T03:31:49.053Z</time>
      </trkpt>
      <trkpt lat="45.67293" lon="4.60827">
        <ele>434.90601862044</ele>
        <time>2022-08-10T03:31:50.242Z</time>
      </trkpt>
      <trkpt lat="45.673" lon="4.60832">
        <ele>433.57326374816</ele>
        <time>2022-08-10T03:31:51.433Z</time>
      </trkpt>
      <trkpt lat="45.67293" lon="4.60827">
        <ele>432.32390869027</ele>
        <time>2022-08-10T03:31:52.626Z</time>
      </trkpt>
      <trkpt lat="45.673" lon="4.60832">
        <ele>433.57326374816</ele>
        <time>2022-08-10T03:31:53.820Z</time>
      </trkpt>
      <trkpt lat="45.67308" lon="4.60841">
        <ele>429.64011885795</ele>
        <time>2022-08-10T03:31:55.016Z</time>
      </trkpt>
      <trkpt lat="45.6732" lon="4.60855">
        <ele>428.29940765614</ele>
        <time>2022-08-10T03:31:56.215Z</time>
      </trkpt>
      <trkpt lat="45.67328" lon="4.60869">
        <ele>426.97620876747</ele>
        <time>2022-08-10T03:31:57.417Z</time>
      </trkpt>
      <trkpt lat="45.6734" lon="4.60898">
        <ele>425.62947590054</ele>
        <time>2022-08-10T03:31:58.624Z</time>
      </trkpt>
      <trkpt lat="45.67364" lon="4.60989">
        <ele>424.31382359468</ele>
        <time>2022-08-10T03:31:59.844Z</time>
      </trkpt>
      <trkpt lat="45.67377" lon="4.61019">
        <ele>423.05548560515</ele>
        <time>2022-08-10T03:32:01.069Z</time>
      </trkpt>
      <trkpt lat="45.67394" lon="4.61044">
        <ele>421.9022926412</ele>
        <time>2022-08-10T03:32:02.299Z</time>
      </trkpt>
      <trkpt lat="45.67439" lon="4.61091">
        <ele>420.5010398138</ele>
        <time>2022-08-10T03:32:03.540Z</time>
      </trkpt>
      <trkpt lat="45.67453" lon="4.6107">
        <ele>419.07567622059</ele>
        <time>2022-08-10T03:32:04.785Z</time>
      </trkpt>
      <trkpt lat="45.67462" lon="4.61066">
        <ele>418.46346143636</ele>
        <time>2022-08-10T03:32:06.032Z</time>
      </trkpt>
      <trkpt lat="45.67518" lon="4.61094">
        <ele>417.87162303679</ele>
        <time>2022-08-10T03:32:07.291Z</time>
      </trkpt>
      <trkpt lat="45.67518" lon="4.61094">
        <ele>417.41765650734</ele>
        <time>2022-08-10T03:32:08.550Z</time>
      </trkpt>
      <trkpt lat="45.67529" lon="4.61109">
        <ele>416.99646465916</ele>
        <time>2022-08-10T03:32:09.812Z</time>
      </trkpt>
      <trkpt lat="45.67547" lon="4.61147">
        <ele>416.55618025225</ele>
        <time>2022-08-10T03:32:11.080Z</time>
      </trkpt>
      <trkpt lat="45.67552" lon="4.61169">
        <ele>416.48239421808</ele>
        <time>2022-08-10T03:32:12.352Z</time>
      </trkpt>
      <trkpt lat="45.67552" lon="4.61169">
        <ele>416.66043048972</ele>
        <time>2022-08-10T03:32:13.624Z</time>
      </trkpt>
      <trkpt lat="45.67553" lon="4.61172">
        <ele>417.02086146007</ele>
        <time>2022-08-10T03:32:14.896Z</time>
      </trkpt>
      <trkpt lat="45.67555" lon="4.61207">
        <ele>417.58020925935</ele>
        <time>2022-08-10T03:32:16.173Z</time>
      </trkpt>
      <trkpt lat="45.67543" lon="4.61283">
        <ele>418.27295415273</ele>
        <time>2022-08-10T03:32:17.461Z</time>
      </trkpt>
      <trkpt lat="45.67537" lon="4.61302">
        <ele>419.14106858213</ele>
        <time>2022-08-10T03:32:18.752Z</time>
      </trkpt>
      <trkpt lat="45.67533" lon="4.61355">
        <ele>420.49099872808</ele>
        <time>2022-08-10T03:32:20.051Z</time>
      </trkpt>
      <trkpt lat="45.67523" lon="4.61426">
        <ele>421.9174392127</ele>
        <time>2022-08-10T03:32:21.360Z</time>
      </trkpt>
      <trkpt lat="45.67533" lon="4.61426">
        <ele>423.54684735342</ele>
        <time>2022-08-10T03:32:22.671Z</time>
      </trkpt>
      <trkpt lat="45.67544" lon="4.61393">
        <ele>425.40103802814</ele>
        <time>2022-08-10T03:32:23.987Z</time>
      </trkpt>
      <trkpt lat="45.67572" lon="4.61387">
        <ele>427.65104820014</ele>
        <time>2022-08-10T03:32:25.308Z</time>
      </trkpt>
      <trkpt lat="45.67595" lon="4.61375">
        <ele>429.88662233518</ele>
        <time>2022-08-10T03:32:26.634Z</time>
      </trkpt>
      <trkpt lat="45.676" lon="4.61375">
        <ele>432.04210707112</ele>
        <time>2022-08-10T03:32:27.961Z</time>
      </trkpt>
      <trkpt lat="45.67607" lon="4.61394">
        <ele>434.33977742442</ele>
        <time>2022-08-10T03:32:29.291Z</time>
      </trkpt>
      <trkpt lat="45.67614" lon="4.61394">
        <ele>436.71563745455</ele>
        <time>2022-08-10T03:32:30.623Z</time>
      </trkpt>
      <trkpt lat="45.6762" lon="4.61351">
        <ele>439.19831001208</ele>
        <time>2022-08-10T03:32:31.961Z</time>
      </trkpt>
      <trkpt lat="45.67624" lon="4.6134">
        <ele>441.69683235064</ele>
        <time>2022-08-10T03:32:33.301Z</time>
      </trkpt>
      <trkpt lat="45.67631" lon="4.61344">
        <ele>444.32812763395</ele>
        <time>2022-08-10T03:32:34.642Z</time>
      </trkpt>
      <trkpt lat="45.67641" lon="4.61358">
        <ele>447.04034155251</ele>
        <time>2022-08-10T03:32:35.986Z</time>
      </trkpt>
      <trkpt lat="45.67669" lon="4.61376">
        <ele>449.77882089271</ele>
        <time>2022-08-10T03:32:37.336Z</time>
      </trkpt>
      <trkpt lat="45.67691" lon="4.6138">
        <ele>452.47212342775</ele>
        <time>2022-08-10T03:32:38.691Z</time>
      </trkpt>
      <trkpt lat="45.67704" lon="4.61373">
        <ele>455.20395914849</ele>
        <time>2022-08-10T03:32:40.048Z</time>
      </trkpt>
      <trkpt lat="45.67704" lon="4.61373">
        <ele>457.81973643957</ele>
        <time>2022-08-10T03:32:41.405Z</time>
      </trkpt>
      <trkpt lat="45.67712" lon="4.6137">
        <ele>460.45868897758</ele>
        <time>2022-08-10T03:32:42.764Z</time>
      </trkpt>
      <trkpt lat="45.67723" lon="4.61356">
        <ele>463.16215463951</ele>
        <time>2022-08-10T03:32:44.126Z</time>
      </trkpt>
      <trkpt lat="45.6774" lon="4.61335">
        <ele>465.89578946285</ele>
        <time>2022-08-10T03:32:45.492Z</time>
      </trkpt>
      <trkpt lat="45.67844" lon="4.61233">
        <ele>469.52032751495</ele>
        <time>2022-08-10T03:32:46.884Z</time>
      </trkpt>
      <trkpt lat="45.67856" lon="4.61229">
        <ele>472.05723235305</ele>
        <time>2022-08-10T03:32:48.278Z</time>
      </trkpt>
      <trkpt lat="45.67872" lon="4.61237">
        <ele>474.44559291189</ele>
        <time>2022-08-10T03:32:49.675Z</time>
      </trkpt>
      <trkpt lat="45.67889" lon="4.61246">
        <ele>476.72009527387</ele>
        <time>2022-08-10T03:32:51.076Z</time>
      </trkpt>
      <trkpt lat="45.679" lon="4.61246">
        <ele>478.92795136884</ele>
        <time>2022-08-10T03:32:52.479Z</time>
      </trkpt>
      <trkpt lat="45.67943" lon="4.61244">
        <ele>481.07751119359</ele>
        <time>2022-08-10T03:32:53.891Z</time>
      </trkpt>
      <trkpt lat="45.67978" lon="4.61257">
        <ele>482.91423445539</ele>
        <time>2022-08-10T03:32:55.310Z</time>
      </trkpt>
      <trkpt lat="45.68007" lon="4.61273">
        <ele>484.55609082196</ele>
        <time>2022-08-10T03:32:56.735Z</time>
      </trkpt>
      <trkpt lat="45.68007" lon="4.61273">
        <ele>486.48065203758</ele>
        <time>2022-08-10T03:32:58.160Z</time>
      </trkpt>
      <trkpt lat="45.68068" lon="4.61312">
        <ele>488.26242916186</ele>
        <time>2022-08-10T03:32:59.599Z</time>
      </trkpt>
      <trkpt lat="45.68095" lon="4.61358">
        <ele>490.33512258417</ele>
        <time>2022-08-10T03:33:01.046Z</time>
      </trkpt>
      <trkpt lat="45.68169" lon="4.61459">
        <ele>492.74433606801</ele>
        <time>2022-08-10T03:33:02.514Z</time>
      </trkpt>
      <trkpt lat="45.68172" lon="4.61469">
        <ele>494.47073879387</ele>
        <time>2022-08-10T03:33:03.983Z</time>
      </trkpt>
      <trkpt lat="45.68201" lon="4.61451">
        <ele>496.16305615346</ele>
        <time>2022-08-10T03:33:05.458Z</time>
      </trkpt>
      <trkpt lat="45.68195" lon="4.61455">
        <ele>497.75785432048</ele>
        <time>2022-08-10T03:33:06.935Z</time>
      </trkpt>
      <trkpt lat="45.68201" lon="4.61451">
        <ele>500.76215170751</ele>
        <time>2022-08-10T03:33:08.413Z</time>
      </trkpt>
      <trkpt lat="45.68209" lon="4.61445">
        <ele>502.11628113937</ele>
        <time>2022-08-10T03:33:09.893Z</time>
      </trkpt>
      <trkpt lat="45.68231" lon="4.61422">
        <ele>503.40315612398</ele>
        <time>2022-08-10T03:33:11.378Z</time>
      </trkpt>
      <trkpt lat="45.6831" lon="4.61322">
        <ele>504.56144085754</ele>
        <time>2022-08-10T03:33:12.884Z</time>
      </trkpt>
      <trkpt lat="45.68314" lon="4.61312">
        <ele>505.6919098154</ele>
        <time>2022-08-10T03:33:14.392Z</time>
      </trkpt>
      <trkpt lat="45.68329" lon="4.61281">
        <ele>506.84657374398</ele>
        <time>2022-08-10T03:33:15.905Z</time>
      </trkpt>
      <trkpt lat="45.68336" lon="4.61243">
        <ele>508.0774813496</ele>
        <time>2022-08-10T03:33:17.424Z</time>
      </trkpt>
      <trkpt lat="45.68375" lon="4.61138">
        <ele>509.23498917595</ele>
        <time>2022-08-10T03:33:18.959Z</time>
      </trkpt>
      <trkpt lat="45.6839" lon="4.61085">
        <ele>509.72709848835</ele>
        <time>2022-08-10T03:33:20.503Z</time>
      </trkpt>
      <trkpt lat="45.68396" lon="4.61036">
        <ele>509.98399012727</ele>
        <time>2022-08-10T03:33:22.053Z</time>
      </trkpt>
      <trkpt lat="45.68396" lon="4.60994">
        <ele>509.96707321677</ele>
        <time>2022-08-10T03:33:23.609Z</time>
      </trkpt>
      <trkpt lat="45.68396" lon="4.60976">
        <ele>509.65574877043</ele>
        <time>2022-08-10T03:33:25.168Z</time>
      </trkpt>
      <trkpt lat="45.68403" lon="4.60935">
        <ele>509.03998539691</ele>
        <time>2022-08-10T03:33:26.733Z</time>
      </trkpt>
      <trkpt lat="45.68421" lon="4.60908">
        <ele>508.07664693979</ele>
        <time>2022-08-10T03:33:28.303Z</time>
      </trkpt>
      <trkpt lat="45.68441" lon="4.60884">
        <ele>507.04623816266</ele>
        <time>2022-08-10T03:33:29.878Z</time>
      </trkpt>
      <trkpt lat="45.68468" lon="4.60883">
        <ele>505.41670859329</ele>
        <time>2022-08-10T03:33:31.459Z</time>
      </trkpt>
      <trkpt lat="45.68519" lon="4.60859">
        <ele>503.36976913384</ele>
        <time>2022-08-10T03:33:33.050Z</time>
      </trkpt>
      <trkpt lat="45.68519" lon="4.60859">
        <ele>499.59684563074</ele>
        <time>2022-08-10T03:33:34.641Z</time>
      </trkpt>
      <trkpt lat="45.68593" lon="4.60785">
        <ele>496.77443485202</ele>
        <time>2022-08-10T03:33:36.250Z</time>
      </trkpt>
      <trkpt lat="45.68606" lon="4.60728">
        <ele>494.33254694081</ele>
        <time>2022-08-10T03:33:37.868Z</time>
      </trkpt>
      <trkpt lat="45.68605" lon="4.60693">
        <ele>491.86875098407</ele>
        <time>2022-08-10T03:33:39.491Z</time>
      </trkpt>
      <trkpt lat="45.68605" lon="4.60655">
        <ele>489.29623157362</ele>
        <time>2022-08-10T03:33:41.119Z</time>
      </trkpt>
      <trkpt lat="45.68596" lon="4.60638">
        <ele>486.93833481872</ele>
        <time>2022-08-10T03:33:42.750Z</time>
      </trkpt>
      <trkpt lat="45.68575" lon="4.60588">
        <ele>484.78675632952</ele>
        <time>2022-08-10T03:33:44.389Z</time>
      </trkpt>
      <trkpt lat="45.68571" lon="4.60567">
        <ele>482.54695227379</ele>
        <time>2022-08-10T03:33:46.031Z</time>
      </trkpt>
      <trkpt lat="45.68584" lon="4.60555">
        <ele>480.00370157392</ele>
        <time>2022-08-10T03:33:47.676Z</time>
      </trkpt>
      <trkpt lat="45.68617" lon="4.60548">
        <ele>477.46528296451</ele>
        <time>2022-08-10T03:33:49.328Z</time>
      </trkpt>
      <trkpt lat="45.68634" lon="4.60545">
        <ele>475.26812205985</ele>
        <time>2022-08-10T03:33:50.984Z</time>
      </trkpt>
      <trkpt lat="45.68689" lon="4.60493">
        <ele>473.35643744708</ele>
        <time>2022-08-10T03:33:52.653Z</time>
      </trkpt>
      <trkpt lat="45.68733" lon="4.60374">
        <ele>471.14278036505</ele>
        <time>2022-08-10T03:33:54.341Z</time>
      </trkpt>
      <trkpt lat="45.68744" lon="4.60367">
        <ele>469.46094509713</ele>
        <time>2022-08-10T03:33:56.031Z</time>
      </trkpt>
      <trkpt lat="45.68763" lon="4.60371">
        <ele>467.9368354269</ele>
        <time>2022-08-10T03:33:57.725Z</time>
      </trkpt>
      <trkpt lat="45.68779" lon="4.60382">
        <ele>466.71789577257</ele>
        <time>2022-08-10T03:33:59.422Z</time>
      </trkpt>
      <trkpt lat="45.68787" lon="4.60414">
        <ele>465.66545544742</ele>
        <time>2022-08-10T03:34:01.124Z</time>
      </trkpt>
      <trkpt lat="45.68822" lon="4.60481">
        <ele>464.96037791292</ele>
        <time>2022-08-10T03:34:02.838Z</time>
      </trkpt>
      <trkpt lat="45.68849" lon="4.60527">
        <ele>464.3989247916</ele>
        <time>2022-08-10T03:34:04.560Z</time>
      </trkpt>
      <trkpt lat="45.68881" lon="4.6055">
        <ele>464.18445235124</ele>
        <time>2022-08-10T03:34:06.289Z</time>
      </trkpt>
      <trkpt lat="45.6891" lon="4.60544">
        <ele>464.53610967504</ele>
        <time>2022-08-10T03:34:08.024Z</time>
      </trkpt>
      <trkpt lat="45.68939" lon="4.60519">
        <ele>465.25194465744</ele>
        <time>2022-08-10T03:34:09.766Z</time>
      </trkpt>
      <trkpt lat="45.68974" lon="4.60492">
        <ele>466.04010666374</ele>
        <time>2022-08-10T03:34:11.516Z</time>
      </trkpt>
      <trkpt lat="45.69117" lon="4.60381">
        <ele>467.11930929238</ele>
        <time>2022-08-10T03:34:13.299Z</time>
      </trkpt>
      <trkpt lat="45.69162" lon="4.60344">
        <ele>468.35212455802</ele>
        <time>2022-08-10T03:34:15.092Z</time>
      </trkpt>
      <trkpt lat="45.69166" lon="4.60344">
        <ele>469.87691075525</ele>
        <time>2022-08-10T03:34:16.886Z</time>
      </trkpt>
      <trkpt lat="45.69168" lon="4.60309">
        <ele>471.79877510328</ele>
        <time>2022-08-10T03:34:18.685Z</time>
      </trkpt>
      <trkpt lat="45.69171" lon="4.60256">
        <ele>473.946098697</ele>
        <time>2022-08-10T03:34:20.491Z</time>
      </trkpt>
      <trkpt lat="45.69172" lon="4.60211">
        <ele>476.51975615624</ele>
        <time>2022-08-10T03:34:22.304Z</time>
      </trkpt>
      <trkpt lat="45.69167" lon="4.60179">
        <ele>479.14553366507</ele>
        <time>2022-08-10T03:34:24.121Z</time>
      </trkpt>
      <trkpt lat="45.6916" lon="4.60122">
        <ele>481.96700153539</ele>
        <time>2022-08-10T03:34:25.946Z</time>
      </trkpt>
      <trkpt lat="45.69121" lon="4.59998">
        <ele>485.28639641693</ele>
        <time>2022-08-10T03:34:27.790Z</time>
      </trkpt>
      <trkpt lat="45.69098" lon="4.59904">
        <ele>488.17654805715</ele>
        <time>2022-08-10T03:34:29.648Z</time>
      </trkpt>
      <trkpt lat="45.69095" lon="4.5988">
        <ele>490.93608724156</ele>
        <time>2022-08-10T03:34:31.510Z</time>
      </trkpt>
      <trkpt lat="45.69097" lon="4.59863">
        <ele>493.6122233613</ele>
        <time>2022-08-10T03:34:33.374Z</time>
      </trkpt>
      <trkpt lat="45.69106" lon="4.59829">
        <ele>496.30912508789</ele>
        <time>2022-08-10T03:34:35.243Z</time>
      </trkpt>
      <trkpt lat="45.69106" lon="4.59809">
        <ele>499.05148491734</ele>
        <time>2022-08-10T03:34:37.115Z</time>
      </trkpt>
      <trkpt lat="45.69103" lon="4.59782">
        <ele>501.79080958382</ele>
        <time>2022-08-10T03:34:38.991Z</time>
      </trkpt>
      <trkpt lat="45.69102" lon="4.5977">
        <ele>504.40964638632</ele>
        <time>2022-08-10T03:34:40.869Z</time>
      </trkpt>
      <trkpt lat="45.69104" lon="4.59763">
        <ele>506.90952300624</ele>
        <time>2022-08-10T03:34:42.748Z</time>
      </trkpt>
      <trkpt lat="45.6911" lon="4.59758">
        <ele>509.2806596968</ele>
        <time>2022-08-10T03:34:44.628Z</time>
      </trkpt>
      <trkpt lat="45.69119" lon="4.59757">
        <ele>511.56605948462</ele>
        <time>2022-08-10T03:34:46.510Z</time>
      </trkpt>
      <trkpt lat="45.69253" lon="4.59788">
        <ele>514.03448136872</ele>
        <time>2022-08-10T03:34:48.419Z</time>
      </trkpt>
      <trkpt lat="45.69261" lon="4.59786">
        <ele>516.40471407729</ele>
        <time>2022-08-10T03:34:50.330Z</time>
      </trkpt>
      <trkpt lat="45.69268" lon="4.59781">
        <ele>518.77029512017</ele>
        <time>2022-08-10T03:34:52.242Z</time>
      </trkpt>
      <trkpt lat="45.69275" lon="4.59771">
        <ele>521.17209112673</ele>
        <time>2022-08-10T03:34:54.156Z</time>
      </trkpt>
      <trkpt lat="45.69281" lon="4.59758">
        <ele>523.56526708763</ele>
        <time>2022-08-10T03:34:56.072Z</time>
      </trkpt>
      <trkpt lat="45.69285" lon="4.59742">
        <ele>525.98771476556</ele>
        <time>2022-08-10T03:34:57.991Z</time>
      </trkpt>
      <trkpt lat="45.69285" lon="4.59727">
        <ele>528.4293242176</ele>
        <time>2022-08-10T03:34:59.912Z</time>
      </trkpt>
      <trkpt lat="45.69279" lon="4.59673">
        <ele>531.19893255837</ele>
        <time>2022-08-10T03:35:01.840Z</time>
      </trkpt>
      <trkpt lat="45.69285" lon="4.5954">
        <ele>534.33955405208</ele>
        <time>2022-08-10T03:35:03.787Z</time>
      </trkpt>
      <trkpt lat="45.69285" lon="4.59528">
        <ele>536.65628997275</ele>
        <time>2022-08-10T03:35:05.736Z</time>
      </trkpt>
      <trkpt lat="45.69291" lon="4.59492">
        <ele>539.03221296446</ele>
        <time>2022-08-10T03:35:07.690Z</time>
      </trkpt>
      <trkpt lat="45.69301" lon="4.59446">
        <ele>541.1170159229</ele>
        <time>2022-08-10T03:35:09.651Z</time>
      </trkpt>
      <trkpt lat="45.69304" lon="4.59417">
        <ele>543.25664049099</ele>
        <time>2022-08-10T03:35:11.616Z</time>
      </trkpt>
      <trkpt lat="45.69303" lon="4.59403">
        <ele>545.38379628885</ele>
        <time>2022-08-10T03:35:13.583Z</time>
      </trkpt>
      <trkpt lat="45.69295" lon="4.59355">
        <ele>547.64063368938</ele>
        <time>2022-08-10T03:35:15.557Z</time>
      </trkpt>
      <trkpt lat="45.69298" lon="4.59326">
        <ele>549.6770217909</ele>
        <time>2022-08-10T03:35:17.535Z</time>
      </trkpt>
      <trkpt lat="45.69301" lon="4.59319">
        <ele>551.63283858636</ele>
        <time>2022-08-10T03:35:19.514Z</time>
      </trkpt>
      <trkpt lat="45.69305" lon="4.59315">
        <ele>553.54602183304</ele>
        <time>2022-08-10T03:35:21.494Z</time>
      </trkpt>
      <trkpt lat="45.69312" lon="4.59311">
        <ele>555.43410503436</ele>
        <time>2022-08-10T03:35:23.475Z</time>
      </trkpt>
      <trkpt lat="45.69321" lon="4.59311">
        <ele>557.34366542822</ele>
        <time>2022-08-10T03:35:25.458Z</time>
      </trkpt>
      <trkpt lat="45.69349" lon="4.59324">
        <ele>559.18444788548</ele>
        <time>2022-08-10T03:35:27.447Z</time>
      </trkpt>
      <trkpt lat="45.69357" lon="4.59325">
        <ele>561.08355744194</ele>
        <time>2022-08-10T03:35:29.438Z</time>
      </trkpt>
      <trkpt lat="45.69371" lon="4.59319">
        <ele>563.09333880449</ele>
        <time>2022-08-10T03:35:31.432Z</time>
      </trkpt>
      <trkpt lat="45.69381" lon="4.59309">
        <ele>565.0650509722</ele>
        <time>2022-08-10T03:35:33.428Z</time>
      </trkpt>
      <trkpt lat="45.69392" lon="4.59288">
        <ele>567.12540117352</ele>
        <time>2022-08-10T03:35:35.428Z</time>
      </trkpt>
      <trkpt lat="45.69434" lon="4.59182">
        <ele>569.45961194873</ele>
        <time>2022-08-10T03:35:37.445Z</time>
      </trkpt>
      <trkpt lat="45.69442" lon="4.59148">
        <ele>571.55849952813</ele>
        <time>2022-08-10T03:35:39.467Z</time>
      </trkpt>
      <trkpt lat="45.69444" lon="4.59106">
        <ele>573.69698840307</ele>
        <time>2022-08-10T03:35:41.495Z</time>
      </trkpt>
      <trkpt lat="45.69441" lon="4.59083">
        <ele>575.81755983085</ele>
        <time>2022-08-10T03:35:43.526Z</time>
      </trkpt>
      <trkpt lat="45.69431" lon="4.59063">
        <ele>578.03558034982</ele>
        <time>2022-08-10T03:35:45.561Z</time>
      </trkpt>
      <trkpt lat="45.69417" lon="4.59044">
        <ele>580.23094153435</ele>
        <time>2022-08-10T03:35:47.599Z</time>
      </trkpt>
      <trkpt lat="45.69361" lon="4.58994">
        <ele>583.18190242763</ele>
        <time>2022-08-10T03:35:49.651Z</time>
      </trkpt>
      <trkpt lat="45.69361" lon="4.58978">
        <ele>585.22349730104</ele>
        <time>2022-08-10T03:35:51.705Z</time>
      </trkpt>
      <trkpt lat="45.69367" lon="4.58964">
        <ele>587.14678736532</ele>
        <time>2022-08-10T03:35:53.761Z</time>
      </trkpt>
      <trkpt lat="45.69363" lon="4.58968">
        <ele>588.91036561771</ele>
        <time>2022-08-10T03:35:55.818Z</time>
      </trkpt>
      <trkpt lat="45.69359" lon="4.58973">
        <ele>590.63528573589</ele>
        <time>2022-08-10T03:35:57.876Z</time>
      </trkpt>
      <trkpt lat="45.69352" lon="4.58985">
        <ele>592.32999147254</ele>
        <time>2022-08-10T03:35:59.936Z</time>
      </trkpt>
      <trkpt lat="45.69348" lon="4.58997">
        <ele>593.89997219463</ele>
        <time>2022-08-10T03:36:01.998Z</time>
      </trkpt>
      <trkpt lat="45.69348" lon="4.5901">
        <ele>595.43172157756</ele>
        <time>2022-08-10T03:36:04.062Z</time>
      </trkpt>
      <trkpt lat="45.69354" lon="4.59026">
        <ele>596.9412128224</ele>
        <time>2022-08-10T03:36:06.129Z</time>
      </trkpt>
      <trkpt lat="45.69361" lon="4.59039">
        <ele>598.47755752461</ele>
        <time>2022-08-10T03:36:08.198Z</time>
      </trkpt>
      <trkpt lat="45.69352" lon="4.59067">
        <ele>600.26243135828</ele>
        <time>2022-08-10T03:36:10.271Z</time>
      </trkpt>
      <trkpt lat="45.69343" lon="4.59068">
        <ele>602.2551390454</ele>
        <time>2022-08-10T03:36:12.346Z</time>
      </trkpt>
      <trkpt lat="45.69334" lon="4.59064">
        <ele>604.37398359951</ele>
        <time>2022-08-10T03:36:14.423Z</time>
      </trkpt>
      <trkpt lat="45.69315" lon="4.59062">
        <ele>606.70394918149</ele>
        <time>2022-08-10T03:36:16.504Z</time>
      </trkpt>
      <trkpt lat="45.69299" lon="4.59053">
        <ele>609.08661098616</ele>
        <time>2022-08-10T03:36:18.588Z</time>
      </trkpt>
      <trkpt lat="45.69278" lon="4.59003">
        <ele>611.9453729521</ele>
        <time>2022-08-10T03:36:20.680Z</time>
      </trkpt>
      <trkpt lat="45.69275" lon="4.58978">
        <ele>614.63016093201</ele>
        <time>2022-08-10T03:36:22.776Z</time>
      </trkpt>
      <trkpt lat="45.69276" lon="4.58957">
        <ele>617.30801120016</ele>
        <time>2022-08-10T03:36:24.875Z</time>
      </trkpt>
      <trkpt lat="45.69282" lon="4.5893">
        <ele>620.17069249008</ele>
        <time>2022-08-10T03:36:26.978Z</time>
      </trkpt>
      <trkpt lat="45.69283" lon="4.58924">
        <ele>622.89797060278</ele>
        <time>2022-08-10T03:36:29.082Z</time>
      </trkpt>
      <trkpt lat="45.69285" lon="4.58918">
        <ele>625.70757533239</ele>
        <time>2022-08-10T03:36:31.187Z</time>
      </trkpt>
      <trkpt lat="45.69329" lon="4.58887">
        <ele>628.54998082912</ele>
        <time>2022-08-10T03:36:33.301Z</time>
      </trkpt>
      <trkpt lat="45.69338" lon="4.58875">
        <ele>631.57031878623</ele>
        <time>2022-08-10T03:36:35.418Z</time>
      </trkpt>
      <trkpt lat="45.69339" lon="4.58861">
        <ele>634.76818760836</ele>
        <time>2022-08-10T03:36:37.537Z</time>
      </trkpt>
      <trkpt lat="45.69387" lon="4.5873">
        <ele>638.05657916825</ele>
        <time>2022-08-10T03:36:39.677Z</time>
      </trkpt>
      <trkpt lat="45.6939" lon="4.58675">
        <ele>641.39697355033</ele>
        <time>2022-08-10T03:36:41.824Z</time>
      </trkpt>
      <trkpt lat="45.69397" lon="4.58603">
        <ele>644.73126790164</ele>
        <time>2022-08-10T03:36:43.982Z</time>
      </trkpt>
      <trkpt lat="45.69397" lon="4.58603">
        <ele>651.51367516041</ele>
        <time>2022-08-10T03:36:46.140Z</time>
      </trkpt>
      <trkpt lat="45.69414" lon="4.58556">
        <ele>655.50112240975</ele>
        <time>2022-08-10T03:36:48.305Z</time>
      </trkpt>
      <trkpt lat="45.69455" lon="4.58462">
        <ele>659.31689337137</ele>
        <time>2022-08-10T03:36:50.486Z</time>
      </trkpt>
      <trkpt lat="45.6949" lon="4.58359">
        <ele>663.17402188041</ele>
        <time>2022-08-10T03:36:52.683Z</time>
      </trkpt>
      <trkpt lat="45.6949" lon="4.58333">
        <ele>666.9447834033</ele>
        <time>2022-08-10T03:36:54.883Z</time>
      </trkpt>
      <trkpt lat="45.69376" lon="4.58369">
        <ele>671.10983994846</ele>
        <time>2022-08-10T03:36:57.107Z</time>
      </trkpt>
      <trkpt lat="45.69332" lon="4.58389">
        <ele>675.22000405488</ele>
        <time>2022-08-10T03:36:59.340Z</time>
      </trkpt>
      <trkpt lat="45.69272" lon="4.58416">
        <ele>679.44918667814</ele>
        <time>2022-08-10T03:37:01.585Z</time>
      </trkpt>
      <trkpt lat="45.69213" lon="4.58418">
        <ele>683.68303634739</ele>
        <time>2022-08-10T03:37:03.842Z</time>
      </trkpt>
      <trkpt lat="45.69159" lon="4.58437">
        <ele>687.9898921529</ele>
        <time>2022-08-10T03:37:06.110Z</time>
      </trkpt>
      <trkpt lat="45.69082" lon="4.58439">
        <ele>692.2572771899</ele>
        <time>2022-08-10T03:37:08.394Z</time>
      </trkpt>
      <trkpt lat="45.69045" lon="4.58396">
        <ele>696.37341822233</ele>
        <time>2022-08-10T03:37:10.687Z</time>
      </trkpt>
      <trkpt lat="45.69027" lon="4.5841">
        <ele>700.35907940265</ele>
        <time>2022-08-10T03:37:12.984Z</time>
      </trkpt>
      <trkpt lat="45.69002" lon="4.58448">
        <ele>704.26386711948</ele>
        <time>2022-08-10T03:37:15.289Z</time>
      </trkpt>
      <trkpt lat="45.68951" lon="4.58469">
        <ele>708.19365783343</ele>
        <time>2022-08-10T03:37:17.604Z</time>
      </trkpt>
      <trkpt lat="45.68928" lon="4.58469">
        <ele>711.86630451137</ele>
        <time>2022-08-10T03:37:19.924Z</time>
      </trkpt>
      <trkpt lat="45.68899" lon="4.58459">
        <ele>715.43186884468</ele>
        <time>2022-08-10T03:37:22.250Z</time>
      </trkpt>
      <trkpt lat="45.68888" lon="4.58434">
        <ele>718.96736946005</ele>
        <time>2022-08-10T03:37:24.580Z</time>
      </trkpt>
      <trkpt lat="45.6888" lon="4.58372">
        <ele>722.46584347377</ele>
        <time>2022-08-10T03:37:26.919Z</time>
      </trkpt>
      <trkpt lat="45.68897" lon="4.58253">
        <ele>726.13147227902</ele>
        <time>2022-08-10T03:37:29.275Z</time>
      </trkpt>
      <trkpt lat="45.68915" lon="4.5812">
        <ele>729.677047481</ele>
        <time>2022-08-10T03:37:31.650Z</time>
      </trkpt>
      <trkpt lat="45.68911" lon="4.58068">
        <ele>732.84448637288</ele>
        <time>2022-08-10T03:37:34.032Z</time>
      </trkpt>
      <trkpt lat="45.68917" lon="4.58028">
        <ele>735.97364973098</ele>
        <time>2022-08-10T03:37:36.420Z</time>
      </trkpt>
      <trkpt lat="45.6892" lon="4.58012">
        <ele>738.91601130243</ele>
        <time>2022-08-10T03:37:38.810Z</time>
      </trkpt>
      <trkpt lat="45.68949" lon="4.5787">
        <ele>741.93153641068</ele>
        <time>2022-08-10T03:37:41.221Z</time>
      </trkpt>
      <trkpt lat="45.68991" lon="4.57758">
        <ele>744.77460477252</ele>
        <time>2022-08-10T03:37:43.650Z</time>
      </trkpt>
      <trkpt lat="45.69044" lon="4.57639">
        <ele>747.65905202207</ele>
        <time>2022-08-10T03:37:46.099Z</time>
      </trkpt>
      <trkpt lat="45.69058" lon="4.57621">
        <ele>750.21744986337</ele>
        <time>2022-08-10T03:37:48.551Z</time>
      </trkpt>
      <trkpt lat="45.69061" lon="4.57617">
        <ele>752.60818899423</ele>
        <time>2022-08-10T03:37:51.004Z</time>
      </trkpt>
      <trkpt lat="45.69076" lon="4.576">
        <ele>754.99616596783</ele>
        <time>2022-08-10T03:37:53.461Z</time>
      </trkpt>
      <trkpt lat="45.69076" lon="4.57574">
        <ele>757.19253146495</ele>
        <time>2022-08-10T03:37:55.922Z</time>
      </trkpt>
      <trkpt lat="45.69062" lon="4.57545">
        <ele>759.3288744636</ele>
        <time>2022-08-10T03:37:58.388Z</time>
      </trkpt>
      <trkpt lat="45.6903" lon="4.57542">
        <ele>761.41785970941</ele>
        <time>2022-08-10T03:38:00.860Z</time>
      </trkpt>
      <trkpt lat="45.69003" lon="4.57562">
        <ele>763.12815880788</ele>
        <time>2022-08-10T03:38:03.338Z</time>
      </trkpt>
      <trkpt lat="45.68958" lon="4.57526">
        <ele>765.29504580209</ele>
        <time>2022-08-10T03:38:05.826Z</time>
      </trkpt>
      <trkpt lat="45.68931" lon="4.57536">
        <ele>767.05756526012</ele>
        <time>2022-08-10T03:38:08.320Z</time>
      </trkpt>
      <trkpt lat="45.68912" lon="4.57608">
        <ele>768.72015523775</ele>
        <time>2022-08-10T03:38:10.825Z</time>
      </trkpt>
      <trkpt lat="45.68873" lon="4.57658">
        <ele>770.05978759984</ele>
        <time>2022-08-10T03:38:13.340Z</time>
      </trkpt>
      <trkpt lat="45.68779" lon="4.57699">
        <ele>771.6793306329</ele>
        <time>2022-08-10T03:38:15.875Z</time>
      </trkpt>
      <trkpt lat="45.68752" lon="4.57678">
        <ele>773.00066179981</ele>
        <time>2022-08-10T03:38:18.416Z</time>
      </trkpt>
      <trkpt lat="45.68658" lon="4.57667">
        <ele>774.11592622183</ele>
        <time>2022-08-10T03:38:20.976Z</time>
      </trkpt>
      <trkpt lat="45.68592" lon="4.57649">
        <ele>774.85735704282</ele>
        <time>2022-08-10T03:38:23.549Z</time>
      </trkpt>
      <trkpt lat="45.68556" lon="4.5764">
        <ele>775.47317898537</ele>
        <time>2022-08-10T03:38:26.130Z</time>
      </trkpt>
      <trkpt lat="45.68539" lon="4.57633">
        <ele>775.94695023242</ele>
        <time>2022-08-10T03:38:28.714Z</time>
      </trkpt>
      <trkpt lat="45.68522" lon="4.57626">
        <ele>776.25740199982</ele>
        <time>2022-08-10T03:38:31.302Z</time>
      </trkpt>
      <trkpt lat="45.68448" lon="4.57597">
        <ele>776.4691381914</ele>
        <time>2022-08-10T03:38:33.905Z</time>
      </trkpt>
      <trkpt lat="45.68434" lon="4.57582">
        <ele>776.41948201159</ele>
        <time>2022-08-10T03:38:36.512Z</time>
      </trkpt>
      <trkpt lat="45.68391" lon="4.57519">
        <ele>775.99816391262</ele>
        <time>2022-08-10T03:38:39.131Z</time>
      </trkpt>
      <trkpt lat="45.68357" lon="4.57491">
        <ele>775.40531781054</ele>
        <time>2022-08-10T03:38:41.758Z</time>
      </trkpt>
      <trkpt lat="45.68319" lon="4.57471">
        <ele>774.53792335044</ele>
        <time>2022-08-10T03:38:44.393Z</time>
      </trkpt>
      <trkpt lat="45.68287" lon="4.57452">
        <ele>773.66680976524</ele>
        <time>2022-08-10T03:38:47.035Z</time>
      </trkpt>
      <trkpt lat="45.68277" lon="4.57438">
        <ele>772.55306456604</ele>
        <time>2022-08-10T03:38:49.680Z</time>
      </trkpt>
      <trkpt lat="45.68247" lon="4.57357">
        <ele>771.16082034064</ele>
        <time>2022-08-10T03:38:52.338Z</time>
      </trkpt>
      <trkpt lat="45.68192" lon="4.57261">
        <ele>769.54665864593</ele>
        <time>2022-08-10T03:38:55.013Z</time>
      </trkpt>
      <trkpt lat="45.6819" lon="4.57245">
        <ele>767.79257803898</ele>
        <time>2022-08-10T03:38:57.690Z</time>
      </trkpt>
      <trkpt lat="45.68182" lon="4.57242">
        <ele>765.93501255075</ele>
        <time>2022-08-10T03:39:00.369Z</time>
      </trkpt>
      <trkpt lat="45.68155" lon="4.57208">
        <ele>763.76674719285</ele>
        <time>2022-08-10T03:39:03.055Z</time>
      </trkpt>
      <trkpt lat="45.68123" lon="4.57175">
        <ele>761.53795614216</ele>
        <time>2022-08-10T03:39:05.749Z</time>
      </trkpt>
      <trkpt lat="45.68113" lon="4.57167">
        <ele>759.22875142455</ele>
        <time>2022-08-10T03:39:08.445Z</time>
      </trkpt>
      <trkpt lat="45.68112" lon="4.57166">
        <ele>756.8026620437</ele>
        <time>2022-08-10T03:39:11.142Z</time>
      </trkpt>
      <trkpt lat="45.68026" lon="4.57096">
        <ele>754.05980273271</ele>
        <time>2022-08-10T03:39:13.858Z</time>
      </trkpt>
      <trkpt lat="45.67922" lon="4.56962">
        <ele>750.47157417045</ele>
        <time>2022-08-10T03:39:16.602Z</time>
      </trkpt>
      <trkpt lat="45.67922" lon="4.56962">
        <ele>745.30870723424</ele>
        <time>2022-08-10T03:39:19.346Z</time>
      </trkpt>
      <trkpt lat="45.67826" lon="4.56841">
        <ele>742.41370815279</ele>
        <time>2022-08-10T03:39:22.116Z</time>
      </trkpt>
      <trkpt lat="45.67807" lon="4.56828">
        <ele>739.85112925284</ele>
        <time>2022-08-10T03:39:24.890Z</time>
      </trkpt>
      <trkpt lat="45.67782" lon="4.56823">
        <ele>737.35437704462</ele>
        <time>2022-08-10T03:39:27.669Z</time>
      </trkpt>
      <trkpt lat="45.6773" lon="4.56828">
        <ele>734.92369702126</ele>
        <time>2022-08-10T03:39:30.459Z</time>
      </trkpt>
      <trkpt lat="45.67712" lon="4.56829">
        <ele>732.60445777186</ele>
        <time>2022-08-10T03:39:33.252Z</time>
      </trkpt>
      <trkpt lat="45.67677" lon="4.56832">
        <ele>730.32733177904</ele>
        <time>2022-08-10T03:39:36.052Z</time>
      </trkpt>
      <trkpt lat="45.67675" lon="4.56832">
        <ele>728.25717601755</ele>
        <time>2022-08-10T03:39:38.853Z</time>
      </trkpt>
      <trkpt lat="45.67657" lon="4.56828">
        <ele>726.30658739263</ele>
        <time>2022-08-10T03:39:41.657Z</time>
      </trkpt>
      <trkpt lat="45.67581" lon="4.56789">
        <ele>724.44308694845</ele>
        <time>2022-08-10T03:39:44.478Z</time>
      </trkpt>
      <trkpt lat="45.67526" lon="4.56786">
        <ele>722.65170981688</ele>
        <time>2022-08-10T03:39:47.310Z</time>
      </trkpt>
      <trkpt lat="45.67475" lon="4.56786">
        <ele>721.06443017838</ele>
        <time>2022-08-10T03:39:50.152Z</time>
      </trkpt>
      <trkpt lat="45.67449" lon="4.56789">
        <ele>719.7050812397</ele>
        <time>2022-08-10T03:39:52.999Z</time>
      </trkpt>
      <trkpt lat="45.67432" lon="4.56786">
        <ele>718.56158320809</ele>
        <time>2022-08-10T03:39:55.849Z</time>
      </trkpt>
      <trkpt lat="45.67413" lon="4.56772">
        <ele>717.61016075097</ele>
        <time>2022-08-10T03:39:58.704Z</time>
      </trkpt>
      <trkpt lat="45.67385" lon="4.56736">
        <ele>716.82851667277</ele>
        <time>2022-08-10T03:40:01.566Z</time>
      </trkpt>
      <trkpt lat="45.67332" lon="4.56707">
        <ele>716.10796219221</ele>
        <time>2022-08-10T03:40:04.440Z</time>
      </trkpt>
      <trkpt lat="45.67306" lon="4.56704">
        <ele>715.7440084759</ele>
        <time>2022-08-10T03:40:07.319Z</time>
      </trkpt>
      <trkpt lat="45.67286" lon="4.56707">
        <ele>715.66551331334</ele>
        <time>2022-08-10T03:40:10.202Z</time>
      </trkpt>
      <trkpt lat="45.67281" lon="4.56709">
        <ele>715.80459183001</ele>
        <time>2022-08-10T03:40:13.086Z</time>
      </trkpt>
      <trkpt lat="45.67256" lon="4.56722">
        <ele>716.20369562827</ele>
        <time>2022-08-10T03:40:15.975Z</time>
      </trkpt>
      <trkpt lat="45.67244" lon="4.56725">
        <ele>716.77747838118</ele>
        <time>2022-08-10T03:40:18.867Z</time>
      </trkpt>
      <trkpt lat="45.67235" lon="4.56725">
        <ele>717.5453544552</ele>
        <time>2022-08-10T03:40:21.760Z</time>
      </trkpt>
      <trkpt lat="45.67222" lon="4.56732">
        <ele>718.53389506468</ele>
        <time>2022-08-10T03:40:24.656Z</time>
      </trkpt>
      <trkpt lat="45.67176" lon="4.56749">
        <ele>719.83436095958</ele>
        <time>2022-08-10T03:40:27.562Z</time>
      </trkpt>
      <trkpt lat="45.67153" lon="4.56763">
        <ele>721.14719648741</ele>
        <time>2022-08-10T03:40:30.473Z</time>
      </trkpt>
      <trkpt lat="45.67147" lon="4.56761">
        <ele>722.56319248127</ele>
        <time>2022-08-10T03:40:33.385Z</time>
      </trkpt>
      <trkpt lat="45.67129" lon="4.56761">
        <ele>724.1702508212</ele>
        <time>2022-08-10T03:40:36.301Z</time>
      </trkpt>
      <trkpt lat="45.67106" lon="4.56757">
        <ele>725.93284806165</ele>
        <time>2022-08-10T03:40:39.221Z</time>
      </trkpt>
      <trkpt lat="45.67085" lon="4.56756">
        <ele>727.77698776756</ele>
        <time>2022-08-10T03:40:42.145Z</time>
      </trkpt>
      <trkpt lat="45.67069" lon="4.5676">
        <ele>729.68636702962</ele>
        <time>2022-08-10T03:40:45.073Z</time>
      </trkpt>
      <trkpt lat="45.67058" lon="4.56765">
        <ele>731.61581683333</ele>
        <time>2022-08-10T03:40:48.003Z</time>
      </trkpt>
      <trkpt lat="45.67044" lon="4.56781">
        <ele>733.58871764307</ele>
        <time>2022-08-10T03:40:50.937Z</time>
      </trkpt>
      <trkpt lat="45.67034" lon="4.56789">
        <ele>735.53852545727</ele>
        <time>2022-08-10T03:40:53.873Z</time>
      </trkpt>
      <trkpt lat="45.67017" lon="4.56796">
        <ele>737.51397243155</ele>
        <time>2022-08-10T03:40:56.812Z</time>
      </trkpt>
      <trkpt lat="45.66964" lon="4.56809">
        <ele>739.70260527877</ele>
        <time>2022-08-10T03:40:59.762Z</time>
      </trkpt>
      <trkpt lat="45.66941" lon="4.56811">
        <ele>741.6103499989</ele>
        <time>2022-08-10T03:41:02.717Z</time>
      </trkpt>
      <trkpt lat="45.66903" lon="4.56808">
        <ele>743.44001685664</ele>
        <time>2022-08-10T03:41:05.679Z</time>
      </trkpt>
      <trkpt lat="45.66861" lon="4.56813">
        <ele>745.09002723239</ele>
        <time>2022-08-10T03:41:08.650Z</time>
      </trkpt>
      <trkpt lat="45.66854" lon="4.56812">
        <ele>746.43723114394</ele>
        <time>2022-08-10T03:41:11.622Z</time>
      </trkpt>
      <trkpt lat="45.66845" lon="4.56813">
        <ele>747.63851102604</ele>
        <time>2022-08-10T03:41:14.596Z</time>
      </trkpt>
      <trkpt lat="45.66768" lon="4.56795">
        <ele>748.73647097804</ele>
        <time>2022-08-10T03:41:17.586Z</time>
      </trkpt>
      <trkpt lat="45.66705" lon="4.5676">
        <ele>749.44096580731</ele>
        <time>2022-08-10T03:41:20.589Z</time>
      </trkpt>
      <trkpt lat="45.66658" lon="4.56745">
        <ele>750.09294594729</ele>
        <time>2022-08-10T03:41:23.602Z</time>
      </trkpt>
      <trkpt lat="45.66643" lon="4.56736">
        <ele>750.61803373307</ele>
        <time>2022-08-10T03:41:26.618Z</time>
      </trkpt>
      <trkpt lat="45.66629" lon="4.56719">
        <ele>751.04765951084</ele>
        <time>2022-08-10T03:41:29.638Z</time>
      </trkpt>
      <trkpt lat="45.66594" lon="4.56661">
        <ele>751.2056237448</ele>
        <time>2022-08-10T03:41:32.668Z</time>
      </trkpt>
      <trkpt lat="45.66578" lon="4.56643">
        <ele>751.2392749714</ele>
        <time>2022-08-10T03:41:35.703Z</time>
      </trkpt>
      <trkpt lat="45.66548" lon="4.56604">
        <ele>751.15313250741</ele>
        <time>2022-08-10T03:41:38.746Z</time>
      </trkpt>
      <trkpt lat="45.66539" lon="4.56592">
        <ele>750.9163247862</ele>
        <time>2022-08-10T03:41:41.791Z</time>
      </trkpt>
      <trkpt lat="45.66479" lon="4.56516">
        <ele>750.50101535111</ele>
        <time>2022-08-10T03:41:44.852Z</time>
      </trkpt>
      <trkpt lat="45.66476" lon="4.56511">
        <ele>750.01960886091</ele>
        <time>2022-08-10T03:41:47.914Z</time>
      </trkpt>
      <trkpt lat="45.6646" lon="4.56484">
        <ele>749.37371753494</ele>
        <time>2022-08-10T03:41:50.981Z</time>
      </trkpt>
      <trkpt lat="45.66448" lon="4.56462">
        <ele>748.63875927266</ele>
        <time>2022-08-10T03:41:54.052Z</time>
      </trkpt>
      <trkpt lat="45.66426" lon="4.56422">
        <ele>747.78981860012</ele>
        <time>2022-08-10T03:41:57.130Z</time>
      </trkpt>
      <trkpt lat="45.66396" lon="4.56376">
        <ele>746.82364827087</ele>
        <time>2022-08-10T03:42:00.217Z</time>
      </trkpt>
      <trkpt lat="45.6636" lon="4.56336">
        <ele>745.90605439874</ele>
        <time>2022-08-10T03:42:03.313Z</time>
      </trkpt>
      <trkpt lat="45.66347" lon="4.56323">
        <ele>745.1306104627</ele>
        <time>2022-08-10T03:42:06.412Z</time>
      </trkpt>
      <trkpt lat="45.6632" lon="4.56294">
        <ele>744.39222336644</ele>
        <time>2022-08-10T03:42:09.518Z</time>
      </trkpt>
      <trkpt lat="45.6631" lon="4.56291">
        <ele>743.64085162991</ele>
        <time>2022-08-10T03:42:12.626Z</time>
      </trkpt>
      <trkpt lat="45.66311" lon="4.56287">
        <ele>742.8529250683</ele>
        <time>2022-08-10T03:42:15.735Z</time>
      </trkpt>
      <trkpt lat="45.66306" lon="4.56278">
        <ele>742.05697637104</ele>
        <time>2022-08-10T03:42:18.845Z</time>
      </trkpt>
      <trkpt lat="45.66301" lon="4.56277">
        <ele>741.25018456249</ele>
        <time>2022-08-10T03:42:21.956Z</time>
      </trkpt>
      <trkpt lat="45.66299" lon="4.56279">
        <ele>740.43690718133</ele>
        <time>2022-08-10T03:42:25.068Z</time>
      </trkpt>
      <trkpt lat="45.66297" lon="4.56281">
        <ele>739.60197047028</ele>
        <time>2022-08-10T03:42:28.180Z</time>
      </trkpt>
      <trkpt lat="45.66295" lon="4.56287">
        <ele>738.74281314039</ele>
        <time>2022-08-10T03:42:31.293Z</time>
      </trkpt>
      <trkpt lat="45.66295" lon="4.5629">
        <ele>737.85491823688</ele>
        <time>2022-08-10T03:42:34.407Z</time>
      </trkpt>
      <trkpt lat="45.66285" lon="4.56293">
        <ele>736.93221258597</ele>
        <time>2022-08-10T03:42:37.523Z</time>
      </trkpt>
      <trkpt lat="45.66258" lon="4.563">
        <ele>735.93397746644</ele>
        <time>2022-08-10T03:42:40.644Z</time>
      </trkpt>
      <trkpt lat="45.66173" lon="4.56313">
        <ele>734.78085439797</ele>
        <time>2022-08-10T03:42:43.782Z</time>
      </trkpt>
      <trkpt lat="45.66167" lon="4.56314">
        <ele>733.78174675584</ele>
        <time>2022-08-10T03:42:46.921Z</time>
      </trkpt>
      <trkpt lat="45.661" lon="4.56339">
        <ele>732.7882754969</ele>
        <time>2022-08-10T03:42:50.074Z</time>
      </trkpt>
      <trkpt lat="45.66091" lon="4.56342">
        <ele>731.70317963221</ele>
        <time>2022-08-10T03:42:53.229Z</time>
      </trkpt>
      <trkpt lat="45.66091" lon="4.56349">
        <ele>730.53108580479</ele>
        <time>2022-08-10T03:42:56.385Z</time>
      </trkpt>
      <trkpt lat="45.66093" lon="4.56372">
        <ele>729.26025795026</ele>
        <time>2022-08-10T03:42:59.544Z</time>
      </trkpt>
      <trkpt lat="45.66101" lon="4.56407">
        <ele>727.79200935385</ele>
        <time>2022-08-10T03:43:02.708Z</time>
      </trkpt>
      <trkpt lat="45.66104" lon="4.56413">
        <ele>726.51437414041</ele>
        <time>2022-08-10T03:43:05.874Z</time>
      </trkpt>
      <trkpt lat="45.66116" lon="4.56434">
        <ele>725.04496056499</ele>
        <time>2022-08-10T03:43:09.043Z</time>
      </trkpt>
      <trkpt lat="45.66134" lon="4.56473">
        <ele>723.6638254003</ele>
        <time>2022-08-10T03:43:12.219Z</time>
      </trkpt>
      <trkpt lat="45.66136" lon="4.56479">
        <ele>722.69407617113</ele>
        <time>2022-08-10T03:43:15.396Z</time>
      </trkpt>
      <trkpt lat="45.66138" lon="4.56485">
        <ele>721.7692370583</ele>
        <time>2022-08-10T03:43:18.574Z</time>
      </trkpt>
      <trkpt lat="45.6614" lon="4.56489">
        <ele>720.89270329213</ele>
        <time>2022-08-10T03:43:21.752Z</time>
      </trkpt>
      <trkpt lat="45.66139" lon="4.56492">
        <ele>720.07326647484</ele>
        <time>2022-08-10T03:43:24.931Z</time>
      </trkpt>
      <trkpt lat="45.66139" lon="4.56496">
        <ele>719.28136037088</ele>
        <time>2022-08-10T03:43:28.110Z</time>
      </trkpt>
      <trkpt lat="45.66144" lon="4.56505">
        <ele>718.48232929088</ele>
        <time>2022-08-10T03:43:31.291Z</time>
      </trkpt>
      <trkpt lat="45.66147" lon="4.56507">
        <ele>717.77629432398</ele>
        <time>2022-08-10T03:43:34.473Z</time>
      </trkpt>
      <trkpt lat="45.66149" lon="4.56507">
        <ele>717.11253392228</ele>
        <time>2022-08-10T03:43:37.655Z</time>
      </trkpt>
      <trkpt lat="45.66152" lon="4.56506">
        <ele>716.46525884063</ele>
        <time>2022-08-10T03:43:40.838Z</time>
      </trkpt>
      <trkpt lat="45.66157" lon="4.56507">
        <ele>715.81715294551</ele>
        <time>2022-08-10T03:43:44.022Z</time>
      </trkpt>
      <trkpt lat="45.66172" lon="4.56515">
        <ele>715.13697491507</ele>
        <time>2022-08-10T03:43:47.209Z</time>
      </trkpt>
      <trkpt lat="45.66174" lon="4.56517">
        <ele>714.55572026378</ele>
        <time>2022-08-10T03:43:50.396Z</time>
      </trkpt>
      <trkpt lat="45.66184" lon="4.56526">
        <ele>713.96100520811</ele>
        <time>2022-08-10T03:43:53.586Z</time>
      </trkpt>
      <trkpt lat="45.66192" lon="4.56532">
        <ele>713.37239680763</ele>
        <time>2022-08-10T03:43:56.778Z</time>
      </trkpt>
      <trkpt lat="45.66194" lon="4.56534">
        <ele>712.78583452222</ele>
        <time>2022-08-10T03:43:59.970Z</time>
      </trkpt>
      <trkpt lat="45.66207" lon="4.56546">
        <ele>712.16863400889</ele>
        <time>2022-08-10T03:44:03.165Z</time>
      </trkpt>
      <trkpt lat="45.66221" lon="4.5656">
        <ele>711.56292214107</ele>
        <time>2022-08-10T03:44:06.364Z</time>
      </trkpt>
      <trkpt lat="45.66232" lon="4.56573">
        <ele>710.94671633519</ele>
        <time>2022-08-10T03:44:09.565Z</time>
      </trkpt>
      <trkpt lat="45.66242" lon="4.56586">
        <ele>710.39998717256</ele>
        <time>2022-08-10T03:44:12.769Z</time>
      </trkpt>
      <trkpt lat="45.66257" lon="4.56613">
        <ele>709.93540398052</ele>
        <time>2022-08-10T03:44:15.978Z</time>
      </trkpt>
      <trkpt lat="45.66262" lon="4.56629">
        <ele>709.73175251438</ele>
        <time>2022-08-10T03:44:19.189Z</time>
      </trkpt>
      <trkpt lat="45.66266" lon="4.56643">
        <ele>709.64352032772</ele>
        <time>2022-08-10T03:44:22.403Z</time>
      </trkpt>
      <trkpt lat="45.66272" lon="4.5664">
        <ele>709.78369423611</ele>
        <time>2022-08-10T03:44:25.618Z</time>
      </trkpt>
      <trkpt lat="45.66274" lon="4.56639">
        <ele>709.81795142979</ele>
        <time>2022-08-10T03:44:28.833Z</time>
      </trkpt>
      <trkpt lat="45.6628" lon="4.56637">
        <ele>709.86327631573</ele>
        <time>2022-08-10T03:44:32.050Z</time>
      </trkpt>
      <trkpt lat="45.66284" lon="4.56637">
        <ele>709.72191159161</ele>
        <time>2022-08-10T03:44:35.267Z</time>
      </trkpt>
      <trkpt lat="45.66289" lon="4.56641">
        <ele>709.43091178785</ele>
        <time>2022-08-10T03:44:38.485Z</time>
      </trkpt>
      <trkpt lat="45.66292" lon="4.56646">
        <ele>708.97838567723</ele>
        <time>2022-08-10T03:44:41.704Z</time>
      </trkpt>
      <trkpt lat="45.66305" lon="4.56685">
        <ele>708.37125022246</ele>
        <time>2022-08-10T03:44:44.929Z</time>
      </trkpt>
      <trkpt lat="45.66268" lon="4.5692">
        <ele>713.83527772512</ele>
        <time>2022-08-10T03:44:48.188Z</time>
      </trkpt>
      <trkpt lat="45.66259" lon="4.56964">
        <ele>706.97684019498</ele>
        <time>2022-08-10T03:44:51.454Z</time>
      </trkpt>
    </trkseg>
  </trk>
</gpx>